Hourly Reports from 6 nearest airdromes.

 

EGHI - Southampton Wx C, United Kingdom
Distance from station: NNW 4mi, 7km
Updated: Wed, 12-Dec-2018 22:20 GMT
NOT Current
Few Clouds
Few Clouds
 Wind from SE
Wind: SE 13 mph , 20 km/h
Temperature: 5°C
Wind Chill: 1°C
Dew Point: -3°C
Humidity: 57%
Barometer: 1017 hPa
Clouds: Few Clouds
Visibility: 6 miles , 10 km
Cloud details: Few Clouds 1372 m
2018/12/12 22:20 EGHI 122220Z 13011KT 090V170 9999 FEW045 05/M03 Q1017
EGVP - Middle Wallop, United Kingdom
Distance from station: NW 20mi, 32km
Updated: Thu, 13-Dec-2018 01:50 GMT
Partly Cloudy
Partly Cloudy
 Wind from E
Wind: E 13 mph , 20 km/h
Temperature: 2°C
Wind Chill: -3°C
Dew Point: -1°C
Humidity: 81%
Barometer: 1014 hPa
Clouds: Partly Cloudy
Visibility: 6 miles , 10 km
Cloud details: Partly Cloudy 1128 m
2018/12/13 01:50 EGVP 130150Z AUTO 08011KT 9999 // SCT037/// 02/M01 Q1014
 
EGHH - Bournemouth Airp, United Kingdom
Distance from station: WSW 25mi, 40km
Updated: Wed, 12-Dec-2018 21:20 GMT
NOT Current
Mostly Cloudy
Mostly Cloudy
 Wind from SE
Wind: SE 21 mph , 33 km/h
Temperature: 7°C
Wind Chill: 3°C
Dew Point: 0°C
Humidity: 61%
Barometer: 1016 hPa
Clouds: Mostly Cloudy
Visibility: 6 miles , 10 km
Cloud details: Mostly Cloudy 1097 m
2018/12/12 21:20 EGHH 122120Z 14018KT 9999 BKN036 07/M00 Q1016
EGDM - Boscombe Down, United Kingdom
Distance from station: NW 27mi, 43km
Updated: Thu, 13-Dec-2018 01:50 GMT
Mostly Cloudy
Mostly Cloudy
 Wind from ESE
Wind: ESE 13 mph , 20 km/h
Temperature: 3°C
Wind Chill: -2°C
Dew Point: -1°C
Humidity: 75%
Barometer: 1014 hPa
Clouds: Mostly Cloudy
Visibility: 6 miles , 10 km
Cloud details: Mostly Cloudy 1036 m
2018/12/13 01:50 EGDM 130150Z AUTO 11011KT 9999 BKN034/// 03/M01 Q1014
 
EGVO - Odiham Raf, United Kingdom
Distance from station: NNE 28mi, 44km
Updated: Thu, 13-Dec-2018 01:50 GMT
Clear
Clear
 Wind from ESE
Wind: ESE 17 mph , 28 km/h
Temperature: 2°C
Wind Chill: -3°C
Dew Point: 0°C
Humidity: 87%
Barometer: 1015 hPa
Clouds: Clear
Visibility: 6 miles , 10 km
2018/12/13 01:50 EGVO 130150Z AUTO 11015KT 9999 NCD 02/00 Q1015
EGLF - Farnborough, United Kingdom
Distance from station: NE 35mi, 57km
Updated: Wed, 12-Dec-2018 20:20 GMT
NOT Current
Clear
Clear
 Wind from E
Wind: E 16 mph , 26 km/h
Temperature: 2°C
Wind Chill: -3°C
Dew Point: -2°C
Humidity: 75%
Barometer: 1018 hPa
Summary: Clear
Visibility: greater than 7 miles , 10 km
2018/12/12 20:20 EGLF 122020Z 08014KT CAVOK 02/M02 Q1018

Metar display script from Saratoga-Weather.org